createdAt,value
2023-05-06T00:02:09.816Z,31.63
2023-05-06T00:05:18.507Z,30.07
2023-05-06T00:08:22.371Z,31.13
2023-05-06T00:11:26.495Z,30.50
2023-05-06T00:14:30.049Z,33.30
2023-05-06T00:17:33.555Z,32.37
2023-05-06T00:20:38.519Z,29.57
2023-05-06T00:23:42.060Z,28.83
2023-05-06T00:26:45.831Z,34.80
2023-05-06T00:29:49.272Z,36.33
2023-05-06T00:32:52.961Z,31.87
2023-05-06T00:35:57.849Z,36.67
2023-05-06T00:39:01.448Z,37.33
2023-05-06T00:42:05.324Z,37.43
2023-05-06T00:45:23.629Z,35.30
2023-05-06T00:48:27.218Z,31.07
2023-05-06T00:51:32.516Z,18.90
2023-05-06T00:54:36.880Z,15.07
2023-05-06T00:57:41.394Z,17.53
2023-05-06T01:00:45.121Z,17.63
2023-05-06T01:03:48.753Z,15.83
2023-05-06T01:07:12.779Z,15.33
2023-05-06T01:10:25.588Z,15.10
2023-05-06T01:13:40.416Z,13.47
2023-05-06T01:16:44.471Z,10.20
2023-05-06T01:19:53.398Z,10.63
2023-05-06T01:22:58.474Z,10.60
2023-05-06T01:26:03.278Z,11.00
2023-05-06T01:29:06.965Z,8.60
2023-05-06T01:32:35.272Z,11.33
2023-05-06T01:35:59.863Z,13.20
2023-05-06T01:39:13.504Z,10.77
2023-05-06T01:42:19.539Z,13.13
2023-05-06T01:45:28.912Z,10.13
2023-05-06T01:48:38.320Z,12.63
2023-05-06T01:51:42.454Z,10.13
2023-05-06T01:54:45.961Z,11.20
2023-05-06T01:57:50.860Z,10.43
2023-05-06T02:00:54.387Z,11.47
2023-05-06T02:03:57.983Z,11.40
2023-05-06T02:07:01.562Z,11.07
2023-05-06T02:10:06.243Z,14.57
2023-05-06T02:13:13.089Z,10.73
2023-05-06T02:16:16.617Z,12.37
2023-05-06T02:19:20.282Z,12.37
2023-05-06T02:22:23.843Z,11.90
2023-05-06T02:25:27.703Z,11.07
2023-05-06T02:28:32.674Z,11.93
2023-05-06T02:31:36.266Z,12.03
2023-05-06T02:34:39.975Z,17.80
2023-05-06T02:37:43.481Z,12.63
2023-05-06T02:40:47.112Z,10.80
2023-05-06T02:43:51.959Z,11.97
2023-05-06T02:46:55.467Z,15.37
2023-05-06T02:49:59.231Z,12.23
2023-05-06T02:53:02.731Z,14.83
2023-05-06T02:56:07.334Z,11.53
2023-05-06T02:59:12.229Z,11.73
2023-05-06T03:02:15.820Z,12.43
2023-05-06T03:05:19.570Z,14.80
2023-05-06T03:08:22.980Z,12.23
2023-05-06T03:11:27.178Z,12.07
2023-05-06T03:14:32.123Z,13.30
2023-05-06T03:17:36.061Z,13.10
2023-05-06T03:20:39.588Z,12.90
2023-05-06T03:23:43.118Z,16.43
2023-05-06T03:26:46.716Z,11.47
2023-05-06T03:29:51.656Z,13.67
2023-05-06T03:32:57.112Z,16.50
2023-05-06T03:36:00.848Z,14.53
2023-05-06T03:39:04.449Z,16.40
2023-05-06T03:42:09.778Z,16.73
2023-05-06T03:45:26.335Z,20.60
2023-05-06T03:48:29.885Z,18.33
2023-05-06T03:51:33.735Z,14.97
2023-05-06T03:54:37.321Z,14.83
2023-05-06T03:57:40.930Z,17.20
2023-05-06T04:00:45.867Z,21.83
2023-05-06T04:03:49.387Z,17.73
2023-05-06T04:06:52.900Z,13.27
2023-05-06T04:09:56.520Z,13.97
2023-05-06T04:13:00.292Z,20.70
2023-05-06T04:16:05.594Z,20.10
2023-05-06T04:19:09.448Z,17.43
2023-05-06T04:22:12.984Z,17.73
2023-05-06T04:25:18.354Z,18.33
2023-05-06T04:28:21.888Z,16.30
2023-05-06T04:31:29.805Z,18.93
2023-05-06T04:34:33.396Z,18.57
2023-05-06T04:37:37.253Z,17.70
2023-05-06T04:40:40.786Z,18.97
2023-05-06T04:43:44.447Z,17.83
2023-05-06T04:46:49.413Z,21.30
2023-05-06T04:49:53.035Z,20.77
2023-05-06T04:52:56.530Z,20.07
2023-05-06T04:56:00.070Z,19.53
2023-05-06T04:59:03.576Z,21.47
2023-05-06T05:02:08.568Z,20.23
2023-05-06T05:05:12.595Z,22.80
2023-05-06T05:08:16.290Z,25.07
2023-05-06T05:11:19.769Z,19.93
2023-05-06T05:14:23.358Z,17.83
2023-05-06T05:17:28.338Z,22.60
2023-05-06T05:20:31.812Z,25.07
2023-05-06T05:23:35.355Z,13.73
2023-05-06T05:26:38.982Z,16.77
2023-05-06T05:29:42.518Z,17.03
2023-05-06T05:32:47.496Z,16.33
2023-05-06T05:35:51.089Z,16.10
2023-05-06T05:38:54.916Z,19.37
2023-05-06T05:41:58.528Z,19.13
2023-05-06T05:45:02.151Z,16.73
2023-05-06T05:48:07.612Z,17.60
2023-05-06T05:51:12.185Z,18.50
2023-05-06T05:54:16.631Z,15.77
2023-05-06T05:57:20.081Z,15.23
2023-05-06T06:00:23.869Z,18.73
2023-05-06T06:03:28.836Z,15.00
2023-05-06T06:06:32.619Z,16.87
2023-05-06T06:09:36.195Z,14.13
2023-05-06T06:12:39.881Z,15.07
2023-05-06T06:15:58.110Z,16.63
2023-05-06T06:19:03.414Z,12.10
2023-05-06T06:22:07.002Z,16.33
2023-05-06T06:25:11.724Z,14.13
2023-05-06T06:28:15.384Z,15.33
2023-05-06T06:31:18.998Z,13.00
2023-05-06T06:34:30.783Z,13.17
2023-05-06T06:37:34.428Z,13.03
2023-05-06T06:40:37.908Z,14.97
2023-05-06T06:43:41.508Z,12.43
2023-05-06T06:46:45.166Z,12.23
2023-05-06T06:49:50.165Z,13.77
2023-05-06T06:52:53.804Z,13.57
2023-05-06T06:55:57.418Z,12.93
2023-05-06T06:59:01.275Z,13.53
2023-05-06T07:02:05.199Z,13.40
2023-05-06T07:05:11.675Z,14.17
2023-05-06T07:08:17.271Z,12.13
2023-05-06T07:11:21.325Z,11.80
2023-05-06T07:14:25.795Z,14.63
2023-05-06T07:17:29.270Z,14.37
2023-05-06T07:20:34.417Z,14.63
2023-05-06T07:23:37.874Z,12.33
2023-05-06T07:26:42.488Z,16.70
2023-05-06T07:29:46.024Z,15.43
2023-05-06T07:32:49.721Z,15.03
2023-05-06T07:35:55.896Z,14.50
2023-05-06T07:38:59.525Z,12.80
2023-05-06T07:42:02.992Z,11.83
2023-05-06T07:45:08.083Z,11.73
2023-05-06T07:48:11.683Z,17.13
2023-05-06T07:51:17.772Z,11.60
2023-05-06T07:54:21.232Z,13.33
2023-05-06T07:57:24.800Z,11.63
2023-05-06T08:00:28.367Z,13.53
2023-05-06T08:03:32.461Z,10.23
2023-05-06T08:06:37.479Z,14.90
2023-05-06T08:09:40.976Z,13.27
2023-05-06T08:12:44.448Z,14.70
2023-05-06T08:15:48.139Z,11.63
2023-05-06T08:18:51.669Z,15.10
2023-05-06T08:21:56.792Z,12.27
2023-05-06T08:25:01.065Z,13.33
2023-05-06T08:28:04.880Z,13.37
2023-05-06T08:31:08.397Z,14.93
2023-05-06T08:34:11.917Z,12.57
2023-05-06T08:37:17.121Z,11.97
2023-05-06T08:40:24.254Z,10.70
2023-05-06T08:43:31.890Z,9.73
2023-05-06T08:46:35.710Z,12.57
2023-05-06T08:49:39.308Z,11.07
2023-05-06T08:52:44.762Z,12.00
2023-05-06T08:55:53.600Z,12.07
2023-05-06T08:58:59.451Z,9.17
2023-05-06T09:02:04.748Z,10.57
2023-05-06T09:05:11.008Z,13.67
2023-05-06T09:08:16.392Z,13.13
2023-05-06T09:11:25.921Z,11.90
2023-05-06T09:14:29.553Z,11.90
2023-05-06T09:17:34.155Z,12.40
2023-05-06T09:20:42.621Z,11.03
2023-05-06T09:23:47.826Z,10.20
2023-05-06T09:26:55.275Z,11.13
2023-05-06T09:30:04.980Z,12.37
2023-05-06T09:33:09.412Z,13.47
2023-05-06T09:36:13.560Z,11.70
2023-05-06T09:39:18.444Z,11.33
2023-05-06T09:42:25.435Z,10.93
2023-05-06T09:45:33.738Z,10.67
2023-05-06T09:48:38.112Z,13.13
2023-05-06T09:51:47.859Z,11.90
2023-05-06T09:54:55.047Z,11.03
2023-05-06T09:58:01.515Z,11.00
2023-05-06T10:01:06.996Z,9.47
2023-05-06T10:04:13.505Z,11.10
2023-05-06T10:07:23.771Z,12.53
2023-05-06T10:10:31.293Z,9.03
2023-05-06T10:13:36.493Z,9.53
2023-05-06T10:16:42.317Z,7.80
2023-05-06T10:19:49.057Z,8.93
2023-05-06T10:23:08.133Z,9.83
2023-05-06T10:26:18.134Z,8.40
2023-05-06T10:29:23.005Z,12.60
2023-05-06T10:32:33.099Z,8.70
2023-05-06T10:35:51.576Z,8.27
2023-05-06T10:39:00.636Z,8.83
2023-05-06T10:42:07.099Z,8.60
2023-05-06T10:45:11.762Z,8.67
2023-05-06T10:48:15.998Z,9.37
2023-05-06T10:51:25.167Z,7.00
2023-05-06T10:54:28.836Z,7.53
2023-05-06T10:57:42.897Z,7.30
2023-05-06T11:00:56.431Z,9.47
2023-05-06T11:04:06.514Z,11.40
2023-05-06T11:07:13.140Z,9.40
2023-05-06T11:10:16.907Z,10.57
2023-05-06T11:13:26.288Z,11.70
2023-05-06T11:16:49.358Z,9.43
2023-05-06T11:20:22.142Z,10.33
2023-05-06T11:24:08.259Z,9.57
2023-05-06T11:27:12.600Z,9.97
2023-05-06T11:30:17.754Z,9.83
2023-05-06T11:33:24.733Z,10.63
2023-05-06T11:36:29.248Z,10.97
2023-05-06T11:39:39.895Z,9.03
2023-05-06T11:42:44.414Z,10.97
2023-05-06T11:45:50.783Z,9.00
2023-05-06T11:48:56.409Z,8.37
2023-05-06T11:52:01.265Z,8.37
2023-05-06T11:55:11.069Z,10.90
2023-05-06T11:58:16.582Z,8.43
2023-05-06T12:01:22.031Z,11.67
2023-05-06T12:04:26.014Z,10.27
2023-05-06T12:07:30.008Z,9.93
2023-05-06T12:10:34.071Z,7.57
2023-05-06T12:13:38.982Z,9.40
2023-05-06T12:16:45.191Z,7.53
2023-05-06T12:19:49.472Z,7.87
2023-05-06T12:23:08.423Z,7.77
2023-05-06T12:26:12.719Z,10.20
2023-05-06T12:29:18.914Z,7.00
2023-05-06T12:32:24.184Z,8.83
2023-05-06T12:35:29.305Z,6.77
2023-05-06T12:38:33.278Z,7.93
2023-05-06T12:41:40.632Z,8.57
2023-05-06T12:44:44.557Z,9.00
2023-05-06T12:47:56.862Z,7.97
2023-05-06T12:51:00.380Z,8.63
2023-05-06T12:54:04.837Z,8.97
2023-05-06T12:57:08.967Z,6.87
2023-05-06T13:00:14.953Z,7.33
2023-05-06T13:03:21.501Z,9.60
2023-05-06T13:06:25.537Z,8.10
2023-05-06T13:09:30.006Z,7.40
2023-05-06T13:12:34.244Z,10.13
2023-05-06T13:15:39.307Z,8.27
2023-05-06T13:18:45.155Z,7.93
2023-05-06T13:21:48.603Z,6.73
2023-05-06T13:24:52.419Z,5.90
2023-05-06T13:27:56.080Z,7.10
2023-05-06T13:30:59.613Z,6.00
2023-05-06T13:34:04.523Z,8.63
2023-05-06T13:37:08.291Z,8.60
2023-05-06T13:40:13.856Z,6.70
2023-05-06T13:43:18.006Z,8.17
2023-05-06T13:46:23.340Z,9.67
2023-05-06T13:49:29.523Z,6.33
2023-05-06T13:52:33.811Z,6.63
2023-05-06T13:55:37.518Z,8.40
2023-05-06T13:58:41.061Z,7.33
2023-05-06T14:01:45.096Z,6.30
2023-05-06T14:04:50.234Z,6.53
2023-05-06T14:07:53.866Z,7.90
2023-05-06T14:10:57.729Z,7.50
2023-05-06T14:14:02.470Z,8.00
2023-05-06T14:17:06.006Z,7.47
2023-05-06T14:20:12.453Z,11.30
2023-05-06T14:23:16.392Z,6.67
2023-05-06T14:26:19.901Z,9.00
2023-05-06T14:29:23.482Z,7.97
2023-05-06T14:32:26.990Z,7.80
2023-05-06T14:35:31.973Z,6.77
2023-05-06T14:38:36.036Z,6.80
2023-05-06T14:41:39.798Z,6.70
2023-05-06T14:44:45.208Z,7.80
2023-05-06T14:47:48.996Z,6.77
2023-05-06T14:50:54.612Z,6.40
2023-05-06T14:53:59.074Z,6.83
2023-05-06T14:57:04.491Z,7.23
2023-05-06T15:00:10.452Z,6.10
2023-05-06T15:03:14.012Z,7.53
2023-05-06T15:06:19.112Z,8.80
2023-05-06T15:09:22.926Z,7.07
2023-05-06T15:12:26.701Z,7.97
2023-05-06T15:15:30.607Z,11.93
2023-05-06T15:18:34.218Z,8.70
2023-05-06T15:21:39.884Z,9.40
2023-05-06T15:24:43.842Z,9.67
2023-05-06T15:27:47.694Z,9.50
2023-05-06T15:30:51.536Z,9.00
2023-05-06T15:33:56.532Z,9.43
2023-05-06T15:37:03.206Z,10.33
2023-05-06T15:40:12.551Z,9.77
2023-05-06T15:43:22.812Z,12.97
2023-05-06T15:46:27.909Z,12.20
2023-05-06T15:49:51.388Z,9.57
2023-05-06T15:52:58.092Z,8.07
2023-05-06T15:56:08.929Z,11.40
2023-05-06T15:59:20.059Z,10.70
2023-05-06T16:02:27.183Z,10.93
2023-05-06T16:05:31.820Z,11.43
2023-05-06T16:08:37.872Z,13.67
2023-05-06T16:11:42.652Z,10.50
2023-05-06T16:14:46.356Z,11.03
2023-05-06T16:17:50.534Z,10.97
2023-05-06T16:20:55.134Z,10.87
2023-05-06T16:24:01.591Z,10.63
2023-05-06T16:27:06.183Z,11.03
2023-05-06T16:30:11.718Z,12.97
2023-05-06T16:33:15.710Z,10.97
2023-05-06T16:36:19.315Z,12.50
2023-05-06T16:39:24.655Z,14.00
2023-05-06T16:42:29.516Z,12.10
2023-05-06T16:45:33.320Z,11.40
2023-05-06T16:48:36.934Z,11.50
2023-05-06T16:51:40.600Z,12.97
2023-05-06T16:54:45.852Z,11.17
2023-05-06T16:57:49.720Z,14.27
2023-05-06T17:00:54.433Z,11.43
2023-05-06T17:03:58.817Z,14.73
2023-05-06T17:07:02.853Z,14.10
2023-05-06T17:10:10.280Z,10.53
2023-05-06T17:13:14.130Z,12.37
2023-05-06T17:16:17.761Z,11.80
2023-05-06T17:19:21.738Z,12.97
2023-05-06T17:22:26.503Z,14.67
2023-05-06T17:25:31.606Z,13.23
2023-05-06T17:28:35.359Z,15.47
2023-05-06T17:31:38.984Z,11.80
2023-05-06T17:34:43.191Z,9.83
2023-05-06T17:37:46.792Z,13.67
2023-05-06T17:40:52.793Z,13.47
2023-05-06T17:43:57.419Z,14.73
2023-05-06T17:47:01.167Z,14.73
2023-05-06T17:50:05.181Z,13.70
2023-05-06T17:53:08.871Z,13.17
2023-05-06T17:56:13.912Z,15.93
2023-05-06T17:59:21.565Z,12.40
2023-05-06T18:02:26.854Z,15.33
2023-05-06T18:05:30.897Z,13.87
2023-05-06T18:08:34.717Z,15.13
2023-05-06T18:11:40.516Z,18.23
2023-05-06T18:14:44.092Z,13.53
2023-05-06T18:17:47.942Z,13.83
2023-05-06T18:20:51.708Z,19.77
2023-05-06T18:24:01.906Z,14.13
2023-05-06T18:27:15.802Z,15.30
2023-05-06T18:30:19.741Z,14.70
2023-05-06T18:33:23.988Z,14.00
2023-05-06T18:36:27.755Z,16.00
2023-05-06T18:39:31.519Z,12.50
2023-05-06T18:42:37.144Z,13.87
2023-05-06T18:45:40.732Z,14.33
2023-05-06T18:48:44.753Z,12.53
2023-05-06T18:51:48.659Z,17.90
2023-05-06T18:54:52.324Z,13.43
2023-05-06T18:57:57.440Z,15.30
2023-05-06T19:01:02.273Z,14.77
2023-05-06T19:04:06.523Z,12.70
2023-05-06T19:07:10.223Z,15.17
2023-05-06T19:10:13.914Z,13.57
2023-05-06T19:13:19.507Z,11.40
2023-05-06T19:16:23.636Z,12.90
2023-05-06T19:19:27.996Z,16.07
2023-05-06T19:22:32.899Z,18.27
2023-05-06T19:25:39.749Z,14.80
2023-05-06T19:28:44.735Z,12.93
2023-05-06T19:31:48.248Z,13.97
2023-05-06T19:34:51.874Z,16.40
2023-05-06T19:37:56.688Z,16.47
2023-05-06T19:41:01.461Z,14.63
2023-05-06T19:44:07.308Z,17.30
2023-05-06T19:47:12.492Z,13.53
2023-05-06T19:50:16.149Z,16.57
2023-05-06T19:53:22.374Z,14.63
2023-05-06T19:56:25.823Z,15.53
2023-05-06T19:59:30.904Z,14.97
2023-05-06T20:02:34.853Z,12.87
2023-05-06T20:05:38.729Z,16.37
2023-05-06T20:08:42.447Z,16.53
2023-05-06T20:11:47.270Z,16.37
2023-05-06T20:14:52.682Z,14.87
2023-05-06T20:17:56.204Z,15.90
2023-05-06T20:20:59.793Z,13.33
2023-05-06T20:24:04.070Z,14.40
2023-05-06T20:27:07.509Z,16.13
2023-05-06T20:30:13.656Z,14.87
2023-05-06T20:33:17.554Z,13.53
2023-05-06T20:36:24.352Z,16.47
2023-05-06T20:39:28.929Z,14.80
2023-05-06T20:42:32.604Z,18.07
2023-05-06T20:45:38.095Z,15.60
2023-05-06T20:48:42.187Z,16.30
2023-05-06T20:51:46.373Z,17.60
2023-05-06T20:54:50.991Z,17.40
2023-05-06T20:57:54.779Z,19.03
2023-05-06T21:01:00.008Z,24.73
2023-05-06T21:04:04.948Z,19.30
2023-05-06T21:07:08.675Z,17.97
2023-05-06T21:10:13.348Z,18.53
2023-05-06T21:13:17.390Z,19.47
2023-05-06T21:16:22.983Z,19.73
2023-05-06T21:19:26.832Z,16.03
2023-05-06T21:22:30.482Z,17.13
2023-05-06T21:25:34.480Z,18.50
2023-05-06T21:28:38.568Z,21.50
2023-05-06T21:31:45.031Z,16.27
2023-05-06T21:34:48.849Z,21.73
2023-05-06T21:37:52.372Z,20.70
2023-05-06T21:40:56.384Z,20.50
2023-05-06T21:44:00.746Z,23.87
2023-05-06T21:47:05.777Z,19.47
2023-05-06T21:50:10.882Z,23.17
2023-05-06T21:53:14.429Z,24.37
2023-05-06T21:56:18.502Z,22.27
2023-05-06T21:59:22.070Z,19.77
2023-05-06T22:02:27.313Z,23.13
2023-05-06T22:05:30.877Z,24.23
2023-05-06T22:08:34.598Z,19.90
2023-05-06T22:11:38.830Z,22.70
2023-05-06T22:14:42.424Z,21.67
2023-05-06T22:17:47.296Z,19.57
2023-05-06T22:20:52.515Z,24.27
2023-05-06T22:23:56.022Z,21.73
2023-05-06T22:26:59.500Z,22.40
2023-05-06T22:30:03.832Z,18.47
2023-05-06T22:33:08.884Z,21.50
2023-05-06T22:36:12.416Z,17.97
2023-05-06T22:39:15.920Z,21.77
2023-05-06T22:42:20.512Z,18.97
2023-05-06T22:45:35.655Z,18.30
2023-05-06T22:48:40.710Z,19.83
2023-05-06T22:51:44.329Z,19.63
2023-05-06T22:54:47.885Z,19.57
2023-05-06T22:57:54.042Z,23.27
2023-05-06T23:00:57.842Z,20.67
2023-05-06T23:04:02.910Z,23.00
2023-05-06T23:07:06.495Z,21.10
2023-05-06T23:10:11.092Z,15.30
2023-05-06T23:13:14.839Z,17.50
2023-05-06T23:16:18.452Z,18.40
2023-05-06T23:19:23.670Z,17.53
2023-05-06T23:22:27.643Z,21.13
2023-05-06T23:25:31.221Z,17.23
2023-05-06T23:28:34.750Z,15.70
2023-05-06T23:31:38.315Z,18.63
2023-05-06T23:34:43.288Z,18.97
2023-05-06T23:37:46.836Z,16.43
2023-05-06T23:40:51.224Z,13.83
2023-05-06T23:43:54.732Z,16.03
2023-05-06T23:46:58.308Z,18.30
2023-05-06T23:50:03.312Z,17.53
2023-05-06T23:53:06.771Z,18.70
2023-05-06T23:56:10.580Z,20.13
2023-05-06T23:59:14.115Z,23.30
